Capitol Logistics 328


KLAX
Los Angeles International Airport
Los Angeles, California, US
KMCI
Kansas City International Airport
Kansas City, Missouri, US

Activity Log

Date Flight Route Aircraft Duration
09/07/2019 CPX328 ORCKA3 LAS J146 DVC GCK J28 ICT EMP JHAWK6 B763 2h 58m

Route Details

Aircraft Information
Primary: Boeing 767-300BDSF
Backup: Boeing 757-200SF
Route Data
Distance: 1184nm
Sched. Duration: 3h 00m
Avg. Duration: 2h 58m (-41m)
Times Flown: 1
Recm'd Route: ORCKA3 LAS J146 DVC GCK J28 ICT EMP JHAWK6
Planned Altitude: 37,000ft
Origin Wx: KLAX 271053Z 07003KT 10SM FEW250 16/M04 A3017 RMK AO2 SLP212 T01611039
Dest. Wx: KMCI 271053Z 20006KT 10SM SCT090 M04/M09 A3014 RMK AO2 SLP214 T10441089
Notes: METROAIR CARGO SUPPORT

Financial History
Total Freight: 60,254lbs
Average Load: 60,254lbs/flt
Fuel Used: 28,101lbs
Avg. Fuel Used: 28,101lbs/flt
Fuel Expense: $33,440
Avg. Fuel Expense: $33,440
Avg. Fuel Cost: $1.19/lbs
Total Gross Income: $80,740
Pilot Pay: $229
Total Expenses: $8,772
Total Revenue: $37,815
Average Revenue: $80,740.36